Zia Pueblo, New Mexico
Current Conditions -  °F | °C
As of 2:48 PM on Monday 20 Oct 2014 (Local Time) from KAEG Reporting Station
Broken Clouds Broken Clouds  
Wind Chill: 70°   Ceiling: 10000
Heat Index: 70°   Visibility: 10mi
Dew Point: 41°   Wind: 8mph
Humidity: 35%   Direction: 140°SE
Pressure: 30.15"   Gusts: NA
Location:  35.5626°N, 106.824°W
Report Text: KAEG 202048Z 14007KT 10SM SCT060 BKN100 21/05 A3015 RMK LTG DSNT NE-S
Loading
Personal Weather Stations






























Interactive Weather Map
Tropical Storm Tracking
New forecast layout! Learn more

10-Day Weather Forecast

Advertisements
Track Severe Weather on mobile